sensor_id;sensor_type;location;lat;lon;timestamp;pressure;altitude;pressure_sealevel;temperature;humidity
7297;BME280;40758;54.038;11.684;2023-02-02T00:01:52;100282.88;;;4.84;100.00
7297;BME280;40758;54.038;11.684;2023-02-02T00:04:23;100288.97;;;4.86;100.00
7297;BME280;40758;54.038;11.684;2023-02-02T00:06:52;100288.09;;;4.85;100.00
7297;BME280;40758;54.038;11.684;2023-02-02T00:09:25;100297.91;;;4.85;100.00
7297;BME280;40758;54.038;11.684;2023-02-02T00:11:58;100303.41;;;4.82;100.00
7297;BME280;40758;54.038;11.684;2023-02-02T00:14:27;100301.41;;;4.85;100.00
7297;BME280;40758;54.038;11.684;2023-02-02T00:16:56;100309.41;;;4.85;100.00
7297;BME280;40758;54.038;11.684;2023-02-02T00:19:26;100315.97;;;4.80;100.00
7297;BME280;40758;54.038;11.684;2023-02-02T00:21:56;100326.28;;;4.72;100.00
7297;BME280;40758;54.038;11.684;2023-02-02T00:24:25;100337.53;;;4.63;100.00
7297;BME280;40758;54.038;11.684;2023-02-02T00:26:57;100330.28;;;4.65;100.00
7297;BME280;40758;54.038;11.684;2023-02-02T00:29:29;100349.44;;;4.70;100.00
7297;BME280;40758;54.038;11.684;2023-02-02T00:31:58;100349.56;;;4.68;100.00
7297;BME280;40758;54.038;11.684;2023-02-02T00:34:26;100341.69;;;4.67;100.00
7297;BME280;40758;54.038;11.684;2023-02-02T00:36:55;100353.19;;;4.67;100.00
7297;BME280;40758;54.038;11.684;2023-02-02T00:39:25;100357.84;;;4.64;100.00
7297;BME280;40758;54.038;11.684;2023-02-02T00:41:53;100371.34;;;4.61;100.00
7297;BME280;40758;54.038;11.684;2023-02-02T00:44:23;100370.59;;;4.59;100.00
7297;BME280;40758;54.038;11.684;2023-02-02T00:47:10;100357.59;;;4.54;100.00
7297;BME280;40758;54.038;11.684;2023-02-02T00:49:38;100369.47;;;4.48;100.00
7297;BME280;40758;54.038;11.684;2023-02-02T00:52:06;100384.50;;;4.35;100.00
7297;BME280;40758;54.038;11.684;2023-02-02T00:54:35;100385.91;;;4.27;100.00
7297;BME280;40758;54.038;11.684;2023-02-02T00:57:03;100386.78;;;4.27;100.00
7297;BME280;40758;54.038;11.684;2023-02-02T00:59:33;100398.75;;;4.20;100.00
7297;BME280;40758;54.038;11.684;2023-02-02T01:02:02;100409.28;;;4.22;100.00
7297;BME280;40758;54.038;11.684;2023-02-02T01:04:30;100409.59;;;4.17;100.00
7297;BME280;40758;54.038;11.684;2023-02-02T01:06:59;100418.72;;;4.13;100.00
7297;BME280;40758;54.038;11.684;2023-02-02T01:09:27;100419.81;;;4.09;100.00
7297;BME280;40758;54.038;11.684;2023-02-02T01:11:56;100415.56;;;4.21;100.00
7297;BME280;40758;54.038;11.684;2023-02-02T01:14:25;100432.56;;;4.18;100.00
7297;BME280;40758;54.038;11.684;2023-02-02T01:16:56;100435.41;;;4.15;100.00
7297;BME280;40758;54.038;11.684;2023-02-02T01:19:24;100429.50;;;4.10;100.00
7297;BME280;40758;54.038;11.684;2023-02-02T01:21:56;100434.84;;;4.10;100.00
7297;BME280;40758;54.038;11.684;2023-02-02T01:24:25;100444.03;;;4.04;100.00
7297;BME280;40758;54.038;11.684;2023-02-02T01:26:53;100451.19;;;4.18;100.00
7297;BME280;40758;54.038;11.684;2023-02-02T01:29:22;100455.72;;;4.16;100.00
7297;BME280;40758;54.038;11.684;2023-02-02T01:31:50;100454.66;;;4.04;100.00
7297;BME280;40758;54.038;11.684;2023-02-02T01:34:20;100467.09;;;4.04;100.00
7297;BME280;40758;54.038;11.684;2023-02-02T01:36:49;100475.28;;;4.01;100.00
7297;BME280;40758;54.038;11.684;2023-02-02T01:39:18;100489.59;;;3.98;100.00
7297;BME280;40758;54.038;11.684;2023-02-02T01:41:46;100484.06;;;3.87;100.00
7297;BME280;40758;54.038;11.684;2023-02-02T01:45:18;100499.94;;;3.89;100.00
7297;BME280;40758;54.038;11.684;2023-02-02T01:47:51;100513.22;;;3.89;100.00
7297;BME280;40758;54.038;11.684;2023-02-02T01:50:26;100509.97;;;3.84;100.00
7297;BME280;40758;54.038;11.684;2023-02-02T01:52:59;100524.03;;;3.86;100.00
7297;BME280;40758;54.038;11.684;2023-02-02T01:55:31;100523.50;;;3.95;100.00
7297;BME280;40758;54.038;11.684;2023-02-02T01:58:05;100544.19;;;4.04;100.00
7297;BME280;40758;54.038;11.684;2023-02-02T02:00:35;100546.56;;;4.08;100.00
7297;BME280;40758;54.038;11.684;2023-02-02T02:03:09;100543.47;;;4.16;100.00
7297;BME280;40758;54.038;11.684;2023-02-02T02:05:43;100558.41;;;4.19;100.00
7297;BME280;40758;54.038;11.684;2023-02-02T02:08:18;100555.47;;;4.23;100.00
7297;BME280;40758;54.038;11.684;2023-02-02T02:10:46;100559.75;;;4.26;100.00
7297;BME280;40758;54.038;11.684;2023-02-02T02:13:16;100552.06;;;4.35;100.00
7297;BME280;40758;54.038;11.684;2023-02-02T02:15:56;100565.16;;;4.38;100.00
7297;BME280;40758;54.038;11.684;2023-02-02T02:18:54;100568.78;;;4.37;100.00
7297;BME280;40758;54.038;11.684;2023-02-02T02:21:49;100583.03;;;4.36;100.00
7297;BME280;40758;54.038;11.684;2023-02-02T02:25:16;100577.72;;;4.36;100.00
7297;BME280;40758;54.038;11.684;2023-02-02T02:28:50;100592.97;;;4.33;100.00
7297;BME280;40758;54.038;11.684;2023-02-02T02:31:55;100588.53;;;4.33;100.00
7297;BME280;40758;54.038;11.684;2023-02-02T02:34:43;100597.63;;;4.29;100.00
7297;BME280;40758;54.038;11.684;2023-02-02T02:37:26;100602.19;;;4.27;100.00
7297;BME280;40758;54.038;11.684;2023-02-02T02:40:07;100613.59;;;4.29;100.00
7297;BME280;40758;54.038;11.684;2023-02-02T02:42:42;100615.31;;;4.30;100.00
7297;BME280;40758;54.038;11.684;2023-02-02T02:45:13;100623.56;;;4.26;100.00
7297;BME280;40758;54.038;11.684;2023-02-02T02:47:43;100626.03;;;4.29;100.00
7297;BME280;40758;54.038;11.684;2023-02-02T02:50:12;100628.69;;;4.29;100.00
7297;BME280;40758;54.038;11.684;2023-02-02T02:52:41;100636.59;;;4.30;100.00
7297;BME280;40758;54.038;11.684;2023-02-02T02:55:10;100643.44;;;4.34;100.00
7297;BME280;40758;54.038;11.684;2023-02-02T02:58:04;100640.00;;;4.32;100.00
7297;BME280;40758;54.038;11.684;2023-02-02T03:00:58;100648.75;;;4.34;100.00
7297;BME280;40758;54.038;11.684;2023-02-02T05:19:47;100842.00;;;3.87;100.00
7297;BME280;40758;54.038;11.684;2023-02-02T05:22:15;100849.81;;;3.90;100.00
7297;BME280;40758;54.038;11.684;2023-02-02T05:24:44;100843.81;;;4.02;100.00
7297;BME280;40758;54.038;11.684;2023-02-02T05:27:13;100847.94;;;4.07;100.00
7297;BME280;40758;54.038;11.684;2023-02-02T05:29:41;100858.59;;;4.07;100.00
7297;BME280;40758;54.038;11.684;2023-02-02T05:32:10;100856.63;;;4.11;100.00
7297;BME280;40758;54.038;11.684;2023-02-02T05:34:38;100846.84;;;4.12;100.00
7297;BME280;40758;54.038;11.684;2023-02-02T05:37:08;100863.66;;;4.12;100.00
7297;BME280;40758;54.038;11.684;2023-02-02T05:39:36;100866.16;;;4.15;100.00
7297;BME280;40758;54.038;11.684;2023-02-02T05:42:05;100872.19;;;4.19;100.00
7297;BME280;40758;54.038;11.684;2023-02-02T05:44:33;100863.94;;;4.23;100.00
7297;BME280;40758;54.038;11.684;2023-02-02T05:47:01;100870.03;;;4.25;100.00
7297;BME280;40758;54.038;11.684;2023-02-02T05:49:30;100872.84;;;4.22;100.00
7297;BME280;40758;54.038;11.684;2023-02-02T05:51:59;100874.56;;;4.23;100.00
7297;BME280;40758;54.038;11.684;2023-02-02T05:54:28;100874.66;;;4.22;100.00
7297;BME280;40758;54.038;11.684;2023-02-02T05:56:57;100881.69;;;4.23;100.00
7297;BME280;40758;54.038;11.684;2023-02-02T05:59:27;100881.69;;;4.23;100.00
7297;BME280;40758;54.038;11.684;2023-02-02T06:01:55;100893.34;;;4.20;100.00
7297;BME280;40758;54.038;11.684;2023-02-02T06:04:23;100896.00;;;4.20;100.00
7297;BME280;40758;54.038;11.684;2023-02-02T06:06:52;100909.28;;;4.20;100.00
7297;BME280;40758;54.038;11.684;2023-02-02T06:09:20;100906.22;;;4.12;100.00
7297;BME280;40758;54.038;11.684;2023-02-02T06:11:51;100903.22;;;4.18;100.00
7297;BME280;40758;54.038;11.684;2023-02-02T06:14:20;100906.50;;;4.23;100.00
7297;BME280;40758;54.038;11.684;2023-02-02T06:16:48;100914.41;;;4.25;100.00
7297;BME280;40758;54.038;11.684;2023-02-02T06:19:18;100920.72;;;4.22;100.00
7297;BME280;40758;54.038;11.684;2023-02-02T06:21:46;100921.22;;;4.13;100.00
7297;BME280;40758;54.038;11.684;2023-02-02T06:24:15;100939.13;;;4.10;100.00
7297;BME280;40758;54.038;11.684;2023-02-02T06:26:44;100930.78;;;4.00;100.00
7297;BME280;40758;54.038;11.684;2023-02-02T06:29:15;100930.88;;;3.98;100.00
7297;BME280;40758;54.038;11.684;2023-02-02T06:31:45;100948.16;;;4.07;100.00
7297;BME280;40758;54.038;11.684;2023-02-02T06:34:14;100945.50;;;4.07;100.00
7297;BME280;40758;54.038;11.684;2023-02-02T06:36:43;100958.59;;;4.10;100.00
7297;BME280;40758;54.038;11.684;2023-02-02T06:39:11;100969.84;;;4.15;100.00
7297;BME280;40758;54.038;11.684;2023-02-02T06:41:40;100959.16;;;4.17;100.00
7297;BME280;40758;54.038;11.684;2023-02-02T06:44:11;100966.88;;;4.21;100.00
7297;BME280;40758;54.038;11.684;2023-02-02T06:46:44;100965.00;;;4.23;100.00
7297;BME280;40758;54.038;11.684;2023-02-02T06:49:12;100972.78;;;4.26;100.00
7297;BME280;40758;54.038;11.684;2023-02-02T06:51:41;100982.44;;;4.29;100.00
7297;BME280;40758;54.038;11.684;2023-02-02T06:54:09;100983.69;;;4.22;100.00
7297;BME280;40758;54.038;11.684;2023-02-02T06:56:38;100988.31;;;4.18;100.00
7297;BME280;40758;54.038;11.684;2023-02-02T06:59:06;100999.09;;;4.15;100.00
7297;BME280;40758;54.038;11.684;2023-02-02T07:01:35;101003.19;;;4.05;100.00
7297;BME280;40758;54.038;11.684;2023-02-02T07:04:05;101010.63;;;3.98;100.00
7297;BME280;40758;54.038;11.684;2023-02-02T07:06:33;101020.03;;;3.88;100.00
7297;BME280;40758;54.038;11.684;2023-02-02T07:09:01;101013.19;;;3.83;100.00
7297;BME280;40758;54.038;11.684;2023-02-02T07:11:30;101019.53;;;3.80;100.00
7297;BME280;40758;54.038;11.684;2023-02-02T07:14:07;101020.53;;;3.78;100.00
7297;BME280;40758;54.038;11.684;2023-02-02T07:16:37;101029.44;;;3.77;100.00
7297;BME280;40758;54.038;11.684;2023-02-02T07:19:07;101032.81;;;3.80;100.00
7297;BME280;40758;54.038;11.684;2023-02-02T07:21:35;101034.44;;;3.83;100.00
7297;BME280;40758;54.038;11.684;2023-02-02T07:24:05;101049.41;;;3.85;100.00
7297;BME280;40758;54.038;11.684;2023-02-02T07:26:34;101046.34;;;3.93;100.00
7297;BME280;40758;54.038;11.684;2023-02-02T07:29:04;101051.38;;;3.99;100.00
7297;BME280;40758;54.038;11.684;2023-02-02T07:31:32;101061.69;;;4.05;100.00
7297;BME280;40758;54.038;11.684;2023-02-02T07:34:03;101053.00;;;4.19;100.00
7297;BME280;40758;54.038;11.684;2023-02-02T07:36:33;101059.88;;;4.23;100.00
7297;BME280;40758;54.038;11.684;2023-02-02T07:39:04;101068.84;;;4.20;100.00
7297;BME280;40758;54.038;11.684;2023-02-02T07:41:35;101071.38;;;4.23;100.00
7297;BME280;40758;54.038;11.684;2023-02-02T07:44:04;101078.25;;;4.27;100.00
7297;BME280;40758;54.038;11.684;2023-02-02T07:46:33;101086.16;;;4.29;100.00
7297;BME280;40758;54.038;11.684;2023-02-02T07:49:02;101087.94;;;4.28;100.00
7297;BME280;40758;54.038;11.684;2023-02-02T07:51:33;101094.22;;;4.27;100.00
7297;BME280;40758;54.038;11.684;2023-02-02T07:54:05;101093.59;;;4.22;100.00
7297;BME280;40758;54.038;11.684;2023-02-02T07:56:34;101099.84;;;4.21;100.00
7297;BME280;40758;54.038;11.684;2023-02-02T07:59:03;101099.84;;;4.21;100.00
7297;BME280;40758;54.038;11.684;2023-02-02T08:01:32;101103.38;;;4.22;100.00
7297;BME280;40758;54.038;11.684;2023-02-02T08:04:00;101110.47;;;4.21;100.00
7297;BME280;40758;54.038;11.684;2023-02-02T08:06:33;101110.66;;;4.18;100.00
7297;BME280;40758;54.038;11.684;2023-02-02T08:09:05;101122.22;;;4.17;100.00
7297;BME280;40758;54.038;11.684;2023-02-02T08:11:36;101136.44;;;4.16;100.00
7297;BME280;40758;54.038;11.684;2023-02-02T08:14:11;101149.75;;;4.16;100.00
7297;BME280;40758;54.038;11.684;2023-02-02T08:16:39;101157.34;;;4.24;100.00
7297;BME280;40758;54.038;11.684;2023-02-02T08:19:09;101167.91;;;4.25;100.00
7297;BME280;40758;54.038;11.684;2023-02-02T08:21:39;101161.44;;;4.31;100.00
7297;BME280;40758;54.038;11.684;2023-02-02T08:24:07;101167.28;;;4.37;100.00
7297;BME280;40758;54.038;11.684;2023-02-02T08:26:36;101166.50;;;4.35;100.00
7297;BME280;40758;54.038;11.684;2023-02-02T08:29:06;101171.81;;;4.35;100.00
7297;BME280;40758;54.038;11.684;2023-02-02T08:31:37;101172.63;;;4.55;100.00
7297;BME280;40758;54.038;11.684;2023-02-02T08:34:09;101176.75;;;4.60;100.00
7297;BME280;40758;54.038;11.684;2023-02-02T08:36:39;101190.91;;;4.78;100.00
7297;BME280;40758;54.038;11.684;2023-02-02T08:39:11;101177.44;;;4.98;100.00
7297;BME280;40758;54.038;11.684;2023-02-02T08:41:40;101176.38;;;5.01;100.00
7297;BME280;40758;54.038;11.684;2023-02-02T08:44:12;101171.72;;;4.88;100.00
7297;BME280;40758;54.038;11.684;2023-02-02T08:46:41;101175.13;;;4.75;100.00
7297;BME280;40758;54.038;11.684;2023-02-02T08:49:10;101173.69;;;4.85;100.00
7297;BME280;40758;54.038;11.684;2023-02-02T08:51:41;101168.44;;;4.83;100.00
7297;BME280;40758;54.038;11.684;2023-02-02T08:54:09;101194.69;;;4.74;100.00
7297;BME280;40758;54.038;11.684;2023-02-02T08:56:38;101196.16;;;4.79;100.00
7297;BME280;40758;54.038;11.684;2023-02-02T08:59:06;101197.38;;;5.07;100.00
7297;BME280;40758;54.038;11.684;2023-02-02T09:01:35;101202.91;;;5.19;100.00
7297;BME280;40758;54.038;11.684;2023-02-02T09:04:06;101208.88;;;5.07;100.00
7297;BME280;40758;54.038;11.684;2023-02-02T09:06:40;101210.47;;;4.77;100.00
7297;BME280;40758;54.038;11.684;2023-02-02T09:09:13;101213.44;;;4.88;100.00
7297;BME280;40758;54.038;11.684;2023-02-02T09:11:43;101223.03;;;4.75;100.00
7297;BME280;40758;54.038;11.684;2023-02-02T09:14:13;101226.63;;;4.74;100.00
7297;BME280;40758;54.038;11.684;2023-02-02T09:16:41;101236.47;;;4.72;100.00
7297;BME280;40758;54.038;11.684;2023-02-02T09:19:10;101236.66;;;4.33;100.00
7297;BME280;40758;54.038;11.684;2023-02-02T09:21:40;101241.94;;;4.52;100.00
7297;BME280;40758;54.038;11.684;2023-02-02T09:24:12;101250.91;;;4.68;100.00
7297;BME280;40758;54.038;11.684;2023-02-02T09:26:42;101251.50;;;4.73;100.00
7297;BME280;40758;54.038;11.684;2023-02-02T09:29:15;101261.28;;;5.07;100.00
7297;BME280;40758;54.038;11.684;2023-02-02T09:31:45;101260.72;;;5.35;100.00
7297;BME280;40758;54.038;11.684;2023-02-02T09:34:15;101262.41;;;5.03;100.00
7297;BME280;40758;54.038;11.684;2023-02-02T09:36:46;101276.28;;;4.75;100.00
7297;BME280;40758;54.038;11.684;2023-02-02T09:39:14;101282.84;;;4.85;100.00
7297;BME280;40758;54.038;11.684;2023-02-02T09:45:06;101297.19;;;5.50;100.00
7297;BME280;40758;54.038;11.684;2023-02-02T09:47:52;101284.25;;;6.24;100.00
7297;BME280;40758;54.038;11.684;2023-02-02T09:50:45;101278.25;;;6.04;98.90
7297;BME280;40758;54.038;11.684;2023-02-02T09:53:25;101291.94;;;5.81;97.78
7297;BME280;40758;54.038;11.684;2023-02-02T09:55:58;101295.94;;;5.90;97.21
7297;BME280;40758;54.038;11.684;2023-02-02T09:58:32;101298.56;;;6.23;96.29
7297;BME280;40758;54.038;11.684;2023-02-02T10:01:06;101293.56;;;6.48;94.91
7297;BME280;40758;54.038;11.684;2023-02-02T10:03:42;101297.00;;;6.34;93.63
7297;BME280;40758;54.038;11.684;2023-02-02T10:06:28;101304.41;;;6.45;92.66
7297;BME280;40758;54.038;11.684;2023-02-02T10:09:17;101314.03;;;6.93;92.18
7297;BME280;40758;54.038;11.684;2023-02-02T10:11:55;101317.38;;;6.51;90.66
7297;BME280;40758;54.038;11.684;2023-02-02T10:14:30;101324.72;;;6.16;90.17
7297;BME280;40758;54.038;11.684;2023-02-02T10:17:22;101331.06;;;5.98;90.66
7297;BME280;40758;54.038;11.684;2023-02-02T10:20:01;101340.69;;;6.00;91.25
7297;BME280;40758;54.038;11.684;2023-02-02T10:22:33;101349.06;;;6.26;91.72
7297;BME280;40758;54.038;11.684;2023-02-02T10:25:03;101348.28;;;6.08;90.64
7297;BME280;40758;54.038;11.684;2023-02-02T10:27:37;101365.03;;;5.77;90.82
7297;BME280;40758;54.038;11.684;2023-02-02T10:30:17;101366.69;;;5.97;90.94
7297;BME280;40758;54.038;11.684;2023-02-02T10:33:02;101376.09;;;6.82;90.87
7297;BME280;40758;54.038;11.684;2023-02-02T10:35:43;101382.06;;;7.47;89.52
7297;BME280;40758;54.038;11.684;2023-02-02T10:38:23;101369.53;;;7.34;87.20
7297;BME280;40758;54.038;11.684;2023-02-02T10:41:08;101380.97;;;7.06;87.38
7297;BME280;40758;54.038;11.684;2023-02-02T10:44:02;101389.91;;;6.59;86.89
7297;BME280;40758;54.038;11.684;2023-02-02T10:46:39;101386.47;;;6.41;86.60
7297;BME280;40758;54.038;11.684;2023-02-02T10:49:23;101409.50;;;6.27;86.36
7297;BME280;40758;54.038;11.684;2023-02-02T10:51:59;101421.50;;;5.51;87.10
7297;BME280;40758;54.038;11.684;2023-02-02T10:54:46;101436.09;;;5.44;89.58
7297;BME280;40758;54.038;11.684;2023-02-02T10:57:45;101435.38;;;5.75;89.51
7297;BME280;40758;54.038;11.684;2023-02-02T11:00:22;101447.06;;;6.06;88.88
7297;BME280;40758;54.038;11.684;2023-02-02T11:02:53;101431.38;;;6.00;88.65
7297;BME280;40758;54.038;11.684;2023-02-02T11:05:27;101435.97;;;6.14;88.28
7297;BME280;40758;54.038;11.684;2023-02-02T11:08:18;101443.03;;;6.79;88.25
7297;BME280;40758;54.038;11.684;2023-02-02T11:10:51;101430.78;;;6.44;87.32
7297;BME280;40758;54.038;11.684;2023-02-02T11:13:30;101441.84;;;6.21;87.71
7297;BME280;40758;54.038;11.684;2023-02-02T11:16:28;101445.84;;;5.96;87.65
7297;BME280;40758;54.038;11.684;2023-02-02T11:19:27;101450.63;;;5.55;89.40
7297;BME280;40758;54.038;11.684;2023-02-02T11:21:58;101472.53;;;5.43;89.77
7297;BME280;40758;54.038;11.684;2023-02-02T11:24:30;101464.06;;;5.35;90.52
7297;BME280;40758;54.038;11.684;2023-02-02T11:27:06;101464.53;;;5.26;90.34
7297;BME280;40758;54.038;11.684;2023-02-02T11:29:45;101463.03;;;5.38;90.44
7297;BME280;40758;54.038;11.684;2023-02-02T11:32:24;101482.28;;;5.08;91.12
7297;BME280;40758;54.038;11.684;2023-02-02T11:35:20;101487.47;;;5.11;91.95
7297;BME280;40758;54.038;11.684;2023-02-02T11:38:08;101487.91;;;5.02;91.90
7297;BME280;40758;54.038;11.684;2023-02-02T11:40:39;101479.25;;;5.16;92.34
7297;BME280;40758;54.038;11.684;2023-02-02T11:43:16;101477.84;;;5.26;91.06
7297;BME280;40758;54.038;11.684;2023-02-02T11:45:53;101484.75;;;5.30;91.09
7297;BME280;40758;54.038;11.684;2023-02-02T11:48:29;101483.28;;;5.76;90.81
7297;BME280;40758;54.038;11.684;2023-02-02T11:51:00;101486.88;;;6.27;90.19
7297;BME280;40758;54.038;11.684;2023-02-02T11:53:31;101467.09;;;6.31;89.28
7297;BME280;40758;54.038;11.684;2023-02-02T11:56:05;101478.00;;;6.11;89.09
7297;BME280;40758;54.038;11.684;2023-02-02T11:58:44;101475.00;;;5.99;89.10
7297;BME280;40758;54.038;11.684;2023-02-02T12:01:25;101479.56;;;5.97;90.37
7297;BME280;40758;54.038;11.684;2023-02-02T12:03:56;101476.69;;;6.18;89.51
7297;BME280;40758;54.038;11.684;2023-02-02T12:06:33;101479.06;;;6.06;89.01
7297;BME280;40758;54.038;11.684;2023-02-02T12:09:11;101480.31;;;6.17;89.31
7297;BME280;40758;54.038;11.684;2023-02-02T12:11:54;101478.28;;;6.22;88.90
7297;BME280;40758;54.038;11.684;2023-02-02T12:14:30;101474.16;;;6.32;88.06
7297;BME280;40758;54.038;11.684;2023-02-02T12:17:12;101472.22;;;6.18;87.80
7297;BME280;40758;54.038;11.684;2023-02-02T12:20:08;101480.72;;;6.42;88.39
7297;BME280;40758;54.038;11.684;2023-02-02T12:22:57;101483.03;;;6.65;87.08
7297;BME280;40758;54.038;11.684;2023-02-02T12:26:07;101481.34;;;6.14;87.06
7297;BME280;40758;54.038;11.684;2023-02-02T12:29:02;101494.53;;;5.65;87.25
7297;BME280;40758;54.038;11.684;2023-02-02T12:31:50;101498.03;;;5.49;87.59
7297;BME280;40758;54.038;11.684;2023-02-02T12:34:38;101502.66;;;5.62;87.89
7297;BME280;40758;54.038;11.684;2023-02-02T12:37:21;101505.53;;;5.41;88.79
7297;BME280;40758;54.038;11.684;2023-02-02T12:40:12;101515.91;;;5.47;89.66
7297;BME280;40758;54.038;11.684;2023-02-02T12:43:06;101524.59;;;5.50;90.17
7297;BME280;40758;54.038;11.684;2023-02-02T12:46:04;101518.03;;;5.57;89.97
7297;BME280;40758;54.038;11.684;2023-02-02T12:49:02;101515.66;;;5.51;89.84
7297;BME280;40758;54.038;11.684;2023-02-02T12:51:49;101516.16;;;5.59;90.21
7297;BME280;40758;54.038;11.684;2023-02-02T12:54:46;101521.69;;;5.19;90.03
7297;BME280;40758;54.038;11.684;2023-02-02T12:57:39;101526.03;;;5.03;90.72
7297;BME280;40758;54.038;11.684;2023-02-02T13:00:35;101531.44;;;5.01;92.11
7297;BME280;40758;54.038;11.684;2023-02-02T13:03:29;101531.88;;;4.92;92.30
7297;BME280;40758;54.038;11.684;2023-02-02T13:06:26;101531.81;;;4.75;92.92
7297;BME280;40758;54.038;11.684;2023-02-02T13:09:08;101558.34;;;4.76;93.99
7297;BME280;40758;54.038;11.684;2023-02-02T13:11:44;101558.84;;;4.66;94.77
7297;BME280;40758;54.038;11.684;2023-02-02T13:14:23;101558.59;;;4.52;95.23
7297;BME280;40758;54.038;11.684;2023-02-02T13:16:59;101566.44;;;4.55;95.76
7297;BME280;40758;54.038;11.684;2023-02-02T13:19:38;101566.19;;;4.61;95.75
7297;BME280;40758;54.038;11.684;2023-02-02T13:22:13;101582.50;;;4.33;96.23
7297;BME280;40758;54.038;11.684;2023-02-02T13:24:51;101581.06;;;4.26;96.40
7297;BME280;40758;54.038;11.684;2023-02-02T13:27:23;101594.25;;;4.27;97.29
7297;BME280;40758;54.038;11.684;2023-02-02T13:29:58;101587.22;;;4.26;97.56
7297;BME280;40758;54.038;11.684;2023-02-02T13:32:33;101586.81;;;4.35;97.73
7297;BME280;40758;54.038;11.684;2023-02-02T13:35:13;101591.34;;;4.33;97.89
7297;BME280;40758;54.038;11.684;2023-02-02T13:37:52;101596.59;;;4.35;97.37
7297;BME280;40758;54.038;11.684;2023-02-02T13:40:31;101607.03;;;4.60;97.30
7297;BME280;40758;54.038;11.684;2023-02-02T13:43:24;101609.69;;;4.99;96.34
7297;BME280;40758;54.038;11.684;2023-02-02T13:46:08;101610.69;;;4.96;95.35
7297;BME280;40758;54.038;11.684;2023-02-02T13:48:55;101602.69;;;4.96;93.97
7297;BME280;40758;54.038;11.684;2023-02-02T13:51:50;101605.97;;;4.82;94.62
7297;BME280;40758;54.038;11.684;2023-02-02T13:55:08;101607.19;;;4.57;94.26
7297;BME280;40758;54.038;11.684;2023-02-02T14:01:05;101618.59;;;3.98;95.35
7297;BME280;40758;54.038;11.684;2023-02-02T14:03:38;101619.91;;;3.88;95.53
7297;BME280;40758;54.038;11.684;2023-02-02T14:06:14;101614.22;;;3.75;95.44
7297;BME280;40758;54.038;11.684;2023-02-02T14:08:51;101629.50;;;3.70;95.05
7297;BME280;40758;54.038;11.684;2023-02-02T14:11:27;101626.22;;;3.63;95.23
7297;BME280;40758;54.038;11.684;2023-02-02T14:14:06;101636.16;;;3.58;95.71
7297;BME280;40758;54.038;11.684;2023-02-02T14:16:53;101639.63;;;3.60;95.31
7297;BME280;40758;54.038;11.684;2023-02-02T14:19:50;101642.22;;;3.62;94.59
7297;BME280;40758;54.038;11.684;2023-02-02T14:22:40;101644.00;;;3.61;94.12
7297;BME280;40758;54.038;11.684;2023-02-02T14:25:47;101655.31;;;3.66;94.02
7297;BME280;40758;54.038;11.684;2023-02-02T14:28:45;101649.06;;;3.67;93.80
7297;BME280;40758;54.038;11.684;2023-02-02T14:31:51;101658.78;;;3.69;93.94
7297;BME280;40758;54.038;11.684;2023-02-02T14:34:32;101669.19;;;3.75;94.25
7297;BME280;40758;54.038;11.684;2023-02-02T14:37:31;101659.22;;;3.80;94.17
7297;BME280;40758;54.038;11.684;2023-02-02T14:40:25;101671.53;;;3.82;94.30
7297;BME280;40758;54.038;11.684;2023-02-02T14:43:10;101672.16;;;3.89;94.14
7297;BME280;40758;54.038;11.684;2023-02-02T14:46:37;101678.94;;;3.96;93.86
7297;BME280;40758;54.038;11.684;2023-02-02T14:49:22;101682.91;;;3.86;93.37
7297;BME280;40758;54.038;11.684;2023-02-02T14:52:02;101686.13;;;3.94;93.81
7297;BME280;40758;54.038;11.684;2023-02-02T14:54:36;101678.25;;;3.91;94.37
7297;BME280;40758;54.038;11.684;2023-02-02T14:57:24;101688.31;;;3.83;94.65
7297;BME280;40758;54.038;11.684;2023-02-02T14:59:55;101689.88;;;3.66;94.91
7297;BME280;40758;54.038;11.684;2023-02-02T15:02:32;101695.31;;;3.63;95.22
7297;BME280;40758;54.038;11.684;2023-02-02T15:05:42;101704.75;;;3.71;95.30
7297;BME280;40758;54.038;11.684;2023-02-02T15:08:22;101706.03;;;3.60;95.40
7297;BME280;40758;54.038;11.684;2023-02-02T15:11:02;101703.13;;;3.45;95.63
7297;BME280;40758;54.038;11.684;2023-02-02T15:14:18;101717.25;;;3.22;96.11
7297;BME280;40758;54.038;11.684;2023-02-02T15:16:51;101724.97;;;3.05;96.26
7297;BME280;40758;54.038;11.684;2023-02-02T15:19:31;101723.16;;;2.82;96.57
7297;BME280;40758;54.038;11.684;2023-02-02T15:22:22;101731.81;;;2.62;97.33
7297;BME280;40758;54.038;11.684;2023-02-02T15:24:55;101730.69;;;2.43;97.86
7297;BME280;40758;54.038;11.684;2023-02-02T15:27:26;101730.25;;;2.30;98.53
7297;BME280;40758;54.038;11.684;2023-02-02T15:30:02;101736.81;;;2.19;99.20
7297;BME280;40758;54.038;11.684;2023-02-02T15:32:32;101746.00;;;2.09;99.64
7297;BME280;40758;54.038;11.684;2023-02-02T15:35:06;101739.34;;;1.95;100.00
7297;BME280;40758;54.038;11.684;2023-02-02T15:37:44;101747.72;;;1.82;100.00
7297;BME280;40758;54.038;11.684;2023-02-02T15:40:21;101742.84;;;1.68;100.00
7297;BME280;40758;54.038;11.684;2023-02-02T15:42:56;101747.75;;;1.52;100.00
7297;BME280;40758;54.038;11.684;2023-02-02T15:45:43;101748.25;;;1.36;100.00
7297;BME280;40758;54.038;11.684;2023-02-02T15:48:25;101755.59;;;1.25;100.00
7297;BME280;40758;54.038;11.684;2023-02-02T15:50:59;101760.34;;;1.13;100.00
7297;BME280;40758;54.038;11.684;2023-02-02T15:53:46;101758.72;;;1.08;100.00
7297;BME280;40758;54.038;11.684;2023-02-02T15:56:27;101766.97;;;0.97;100.00
7297;BME280;40758;54.038;11.684;2023-02-02T15:58:58;101764.69;;;0.84;100.00
7297;BME280;40758;54.038;11.684;2023-02-02T16:01:32;101771.56;;;0.91;100.00
7297;BME280;40758;54.038;11.684;2023-02-02T16:04:16;101781.91;;;0.66;100.00
7297;BME280;40758;54.038;11.684;2023-02-02T16:06:49;101783.28;;;0.47;100.00
7297;BME280;40758;54.038;11.684;2023-02-02T16:09:25;101790.00;;;0.24;100.00